Time;durP1;ratioP1;P1;durP2;ratioP2;P2;SDS_P1;SDS_P2;PMS_P1;PMS_P2;Temp;Humidity;BMP_temperature;BMP_pressure;BME280_temperature;BME280_humidity;BME280_pressure;Samples;Min_cycle;Max_cycle;Signal;HPM_P1;HPM_P2
2022/12/21 00:01:10;;;;;;;163.10;53.70;;;;;;;-2.19;91.25;98626.05;103028;1313;24260;-80
2022/12/21 00:03:36;;;;;;;127.20;56.20;;;;;;;-2.20;91.37;98606.63;102759;1294;24225;-80
2022/12/21 00:06:04;;;;;;;118.00;56.20;;;;;;;-2.21;91.38;98601.59;103020;1291;138296;-81
2022/12/21 00:08:43;;;;;;;120.20;54.50;;;;;;;-2.22;91.31;98604.73;103085;1306;22511;-80
2022/12/21 00:11:11;;;;;;;120.70;54.40;;;;;;;-2.24;91.26;98596.21;102935;1304;138093;-80
2022/12/21 00:13:40;;;;;;;122.40;54.00;;;;;;;-2.25;91.50;98592.31;103034;1296;22511;-80
2022/12/21 00:16:15;;;;;;;122.40;56.70;;;;;;;-2.28;91.50;98594.13;102906;1298;140477;-80
2022/12/21 00:18:42;;;;;;;127.50;57.40;;;;;;;-2.29;91.29;98595.16;103219;1305;25227;-81
2022/12/21 00:21:11;;;;;;;126.50;57.00;;;;;;;-2.32;91.00;98605.91;103076;1281;25329;-81
2022/12/21 00:23:37;;;;;;;118.90;53.50;;;;;;;-2.35;91.03;98610.73;103120;1305;139558;-81
2022/12/21 00:26:05;;;;;;;121.10;54.60;;;;;;;-2.38;91.14;98604.59;105580;1308;23003;-81
2022/12/21 00:28:33;;;;;;;113.70;51.70;;;;;;;-2.42;91.20;98596.09;103605;1291;138567;-81
2022/12/21 00:31:21;;;;;;;113.50;54.20;;;;;;;-2.43;91.22;98588.61;102987;1313;25260;-81
2022/12/21 00:33:49;;;;;;;112.20;52.70;;;;;;;-2.45;90.96;98589.58;103058;1308;23034;-81
2022/12/21 00:36:18;;;;;;;123.40;52.00;;;;;;;-2.46;91.33;98585.58;103192;1296;24318;-80
2022/12/21 00:38:49;;;;;;;113.10;49.60;;;;;;;-2.48;91.23;98598.00;103024;1290;22470;-81
2022/12/21 00:41:23;;;;;;;113.80;50.00;;;;;;;-2.51;91.10;98598.42;102299;1305;1293352;-81
2022/12/21 00:43:52;;;;;;;112.80;49.60;;;;;;;-2.53;91.11;98602.91;103138;1312;24408;-81
2022/12/21 00:46:21;;;;;;;112.30;50.80;;;;;;;-2.57;91.03;98615.38;103337;1291;138407;-81
2022/12/21 00:48:48;;;;;;;114.80;53.50;;;;;;;-2.57;91.52;98615.30;103648;1291;23381;-81
2022/12/21 00:51:18;;;;;;;118.30;51.80;;;;;;;-2.59;91.34;98609.03;102978;1291;25128;-80
2022/12/21 00:53:45;;;;;;;119.50;52.40;;;;;;;-2.59;91.61;98603.56;103031;1295;138092;-81
2022/12/21 00:56:11;;;;;;;117.90;50.90;;;;;;;-2.60;91.60;98595.15;103228;1292;22751;-81
2022/12/21 00:58:38;;;;;;;131.60;55.00;;;;;;;-2.62;91.39;98606.35;103175;1298;138605;-82
2022/12/21 01:01:07;;;;;;;125.50;56.10;;;;;;;-2.63;91.62;98609.17;103082;1297;25331;-81
2022/12/21 01:03:34;;;;;;;126.80;57.20;;;;;;;-2.63;91.75;98607.70;103767;1289;25321;-82
2022/12/21 01:06:00;;;;;;;125.70;56.60;;;;;;;-2.63;91.77;98608.04;103219;1297;138098;-81
2022/12/21 01:08:26;;;;;;;124.80;56.20;;;;;;;-2.63;91.75;98606.98;102858;1313;22495;-81
2022/12/21 01:11:00;;;;;;;131.80;57.80;;;;;;;-2.62;91.89;98597.88;102894;1299;138134;-81
2022/12/21 01:13:28;;;;;;;133.80;58.20;;;;;;;-2.61;92.16;98586.33;103101;1305;23224;-81
2022/12/21 01:15:55;;;;;;;142.00;58.70;;;;;;;-2.59;92.08;98584.91;102966;1313;138256;-81
2022/12/21 01:18:22;;;;;;;138.00;61.40;;;;;;;-2.59;92.33;98584.14;102838;1291;22478;-81
2022/12/21 01:20:51;;;;;;;136.30;61.30;;;;;;;-2.58;92.16;98585.52;103113;1297;22528;-82
2022/12/21 01:23:20;;;;;;;141.30;59.30;;;;;;;-2.57;92.36;98585.23;102543;1306;138176;-81
2022/12/21 01:25:48;;;;;;;142.10;62.50;;;;;;;-2.56;92.60;98584.39;104047;1289;22519;-82
2022/12/21 01:28:16;;;;;;;135.60;60.30;;;;;;;-2.53;92.72;98572.67;103389;1294;138944;-81
2022/12/21 01:30:46;;;;;;;143.00;63.60;;;;;;;-2.50;92.79;98570.77;103227;1292;24253;-81
2022/12/21 01:33:18;;;;;;;145.20;62.90;;;;;;;-2.47;92.82;98565.67;102913;1292;22583;-81
2022/12/21 01:35:45;;;;;;;148.00;63.60;;;;;;;-2.44;92.88;98554.92;103216;1289;138145;-82
2022/12/21 01:38:12;;;;;;;137.40;61.40;;;;;;;-2.41;92.68;98548.39;103225;1289;25327;-81
2022/12/21 01:40:39;;;;;;;146.10;64.00;;;;;;;-2.39;92.61;98544.63;102942;1297;139015;-81
2022/12/21 01:43:35;;;;;;;129.90;58.20;;;;;;;-2.36;92.62;98534.88;102965;1299;22467;-81
2022/12/21 01:46:02;;;;;;;146.40;61.20;;;;;;;-2.35;92.49;98535.30;103005;1290;138383;-81
2022/12/21 01:48:30;;;;;;;147.20;60.40;;;;;;;-2.33;92.81;98538.45;102710;1309;22493;-81
2022/12/21 01:51:04;;;;;;;140.10;60.60;;;;;;;-2.29;92.79;98540.72;102997;1312;25317;-81
2022/12/21 01:53:36;;;;;;;140.10;60.50;;;;;;;-2.27;92.54;98537.83;103150;1304;138152;-82
2022/12/21 01:56:07;;;;;;;142.70;60.90;;;;;;;-2.24;92.74;98540.40;103254;1298;22554;-82
2022/12/21 01:58:35;;;;;;;141.10;60.20;;;;;;;-2.21;92.70;98545.58;102620;1284;138823;-81
2022/12/21 02:01:06;;;;;;;139.40;60.30;;;;;;;-2.18;92.62;98546.56;102634;1308;22464;-82
2022/12/21 02:03:39;;;;;;;138.30;59.20;;;;;;;-2.17;92.75;98535.39;103061;1305;24253;-81
2022/12/21 02:06:15;;;;;;;139.00;61.60;;;;;;;-2.15;92.42;98528.25;103022;1309;138079;-82
2022/12/21 02:08:41;;;;;;;137.70;62.10;;;;;;;-2.14;92.26;98517.70;103137;1300;22505;-82
2022/12/21 02:11:08;;;;;;;135.00;61.10;;;;;;;-2.13;92.36;98516.05;102588;1313;138420;-81
2022/12/21 02:13:35;;;;;;;134.00;60.90;;;;;;;-2.11;92.56;98506.83;103059;1308;22471;-82
2022/12/21 02:16:17;;;;;;;141.50;60.00;;;;;;;-2.09;92.36;98503.23;103026;1312;138577;-81
2022/12/21 02:19:02;;;;;;;137.40;60.40;;;;;;;-2.06;92.26;98505.14;103166;1291;25375;-82
2022/12/21 02:21:49;;;;;;;145.70;59.10;;;;;;;-2.07;92.15;98514.05;103372;1311;24365;-82
2022/12/21 02:24:21;;;;;;;138.80;58.20;;;;;;;-2.08;92.09;98527.67;102878;1289;137896;-80
2022/12/21 02:26:47;;;;;;;145.40;61.30;;;;;;;-2.10;91.98;98519.01;103037;1306;25287;-82
2022/12/21 02:29:50;;;;;;;143.80;59.90;;;;;;;-2.09;91.91;98509.63;102897;1290;138227;-82
2022/12/21 02:32:42;;;;;;;126.30;56.70;;;;;;;-2.08;92.05;98499.06;102973;1298;24464;-81
2022/12/21 02:35:34;;;;;;;137.00;59.60;;;;;;;-2.10;91.84;98506.70;103030;1305;138092;-81
2022/12/21 02:38:46;;;;;;;131.50;59.00;;;;;;;-2.09;92.16;98514.23;102993;1304;23291;-81
2022/12/21 02:41:27;;;;;;;135.20;55.30;;;;;;;-2.06;92.35;98516.14;102232;1321;138451;-81
2022/12/21 02:44:14;;;;;;;142.80;59.30;;;;;;;-2.06;92.14;98509.31;102003;1311;22614;-80
2022/12/21 02:46:57;;;;;;;139.00;59.40;;;;;;;-2.08;91.73;98502.64;101799;1312;140049;-81
2022/12/21 02:49:37;;;;;;;138.20;57.30;;;;;;;-2.10;91.88;98514.01;102247;1311;22477;-81
2022/12/21 02:52:20;;;;;;;133.00;55.40;;;;;;;-2.12;92.15;98509.16;101905;1309;138874;-81
2022/12/21 02:54:46;;;;;;;128.90;55.20;;;;;;;-2.11;92.05;98509.47;102262;1308;22746;-81
2022/12/21 02:57:13;;;;;;;125.50;52.40;;;;;;;-2.10;92.32;98498.13;102037;1304;24018;-81
2022/12/21 02:59:48;;;;;;;123.80;53.80;;;;;;;-2.09;92.18;98476.71;101939;1304;140160;-81
2022/12/21 03:02:42;;;;;;;128.10;53.90;;;;;;;-2.08;92.05;98486.79;102261;1306;25333;-81
2022/12/21 03:05:39;;;;;;;122.80;53.70;;;;;;;-2.09;92.38;98511.77;101953;1320;138749;-82
2022/12/21 03:08:48;;;;;;;114.50;52.50;;;;;;;-2.07;92.37;98510.86;102068;1312;22474;-81
2022/12/21 03:11:15;;;;;;;127.50;56.60;;;;;;;-2.05;92.22;98503.73;102258;1310;139710;-81
2022/12/21 03:13:58;;;;;;;127.20;53.30;;;;;;;-2.04;92.47;98498.50;102133;1320;22613;-81
2022/12/21 03:16:48;;;;;;;124.40;55.50;;;;;;;-2.05;92.03;98496.96;102047;1291;140330;-81
2022/12/21 03:19:28;;;;;;;123.00;53.50;;;;;;;-2.07;92.07;98490.92;103270;1310;22649;-81
2022/12/21 03:22:04;;;;;;;113.70;51.60;;;;;;;-2.07;92.07;98506.05;103243;1297;22551;-81
2022/12/21 03:24:38;;;;;;;110.80;51.00;;;;;;;-2.08;92.20;98500.97;102983;1313;24297;-81
2022/12/21 03:27:18;;;;;;;131.10;50.60;;;;;;;-2.10;92.15;98498.13;102901;1295;23428;-81
2022/12/21 03:29:51;;;;;;;116.10;50.90;;;;;;;-2.14;91.80;98514.75;103105;1298;138158;-81
2022/12/21 03:32:24;;;;;;;112.80;50.10;;;;;;;-2.17;91.86;98516.82;103251;1309;22483;-81
2022/12/21 03:34:53;;;;;;;122.10;50.50;;;;;;;-2.20;91.81;98515.41;102918;1297;138781;-80
2022/12/21 03:37:29;;;;;;;110.50;48.50;;;;;;;-2.26;91.16;98512.28;102669;1290;22472;-81
2022/12/21 03:40:13;;;;;;;116.70;48.90;;;;;;;-2.31;91.04;98511.94;102956;1294;25386;-81
2022/12/21 03:42:47;;;;;;;105.20;46.20;;;;;;;-2.36;91.02;98519.23;102905;1313;22483;-81
2022/12/21 03:45:21;;;;;;;109.50;47.40;;;;;;;-2.40;91.29;98520.21;102982;1292;22482;-81
2022/12/21 03:47:58;;;;;;;111.50;46.80;;;;;;;-2.44;91.27;98522.72;102927;1304;138376;-81
2022/12/21 03:50:30;;;;;;;113.90;50.20;;;;;;;-2.48;91.26;98519.97;102965;1290;22570;-81
2022/12/21 03:53:36;;;;;;;107.10;46.00;;;;;;;-2.51;91.23;98515.45;102909;1288;138154;-80
2022/12/21 03:56:07;;;;;;;109.50;46.50;;;;;;;-2.56;91.33;98510.66;103047;1304;25373;-80
2022/12/21 03:58:35;;;;;;;109.00;48.00;;;;;;;-2.60;91.31;98507.02;103151;1288;140130;-81
2022/12/21 04:01:32;;;;;;;111.90;49.10;;;;;;;-2.63;91.26;98500.91;103061;1296;24838;-81
2022/12/21 04:04:08;;;;;;;112.50;50.90;;;;;;;-2.66;91.35;98501.36;103044;1289;22582;-80
2022/12/21 04:06:39;;;;;;;112.80;49.20;;;;;;;-2.69;91.40;98507.71;102963;1297;22487;-80
2022/12/21 04:09:05;;;;;;;98.60;44.80;;;;;;;-2.72;91.50;98514.46;103021;1313;22465;-81
2022/12/21 04:14:20;;;;;;;106.30;47.90;;;;;;;-2.77;91.88;98511.95;102999;1307;22500;-80
2022/12/21 04:16:46;;;;;;;114.20;48.70;;;;;;;-2.78;92.17;98514.00;102891;1305;138398;-81
2022/12/21 04:21:57;;;;;;;115.00;49.60;;;;;;;-2.79;92.22;98516.75;102801;1289;24747;-80
2022/12/21 04:29:57;;;;;;;100.20;43.20;;;;;;;-2.89;91.65;98500.73;102815;1313;138295;-80
2022/12/21 04:32:26;;;;;;;118.90;49.50;;;;;;;-2.94;91.60;98495.02;102958;1313;24317;-80
2022/12/21 04:34:52;;;;;;;118.90;50.50;;;;;;;-2.96;91.79;98502.37;102922;1292;140810;-80
2022/12/21 04:37:31;;;;;;;114.20;48.00;;;;;;;-2.98;92.09;98501.63;102923;1298;23874;-80
2022/12/21 04:39:59;;;;;;;116.80;49.90;;;;;;;-3.00;92.16;98503.77;102936;1287;23911;-80
2022/12/21 04:42:26;;;;;;;107.50;48.30;;;;;;;-3.00;92.14;98502.45;102940;1311;139164;-80
2022/12/21 04:44:52;;;;;;;115.60;48.70;;;;;;;-3.03;92.10;98497.94;102848;1296;22875;-80
2022/12/21 04:47:19;;;;;;;116.00;49.70;;;;;;;-3.06;92.39;98503.34;102757;1301;138277;-79
2022/12/21 04:49:46;;;;;;;120.20;50.30;;;;;;;-3.07;92.51;98511.89;102826;1303;22475;-79
2022/12/21 04:52:12;;;;;;;114.60;50.20;;;;;;;-3.06;92.88;98513.17;102885;1302;138582;-79
2022/12/21 04:54:38;;;;;;;122.10;52.40;;;;;;;-3.06;92.89;98525.36;103066;1305;23453;-80
2022/12/21 04:57:04;;;;;;;130.90;53.80;;;;;;;-3.05;92.91;98526.72;103050;1299;22981;-80
2022/12/21 04:59:30;;;;;;;128.40;54.80;;;;;;;-3.04;93.02;98529.10;102884;1302;140066;-80
2022/12/21 05:01:58;;;;;;;119.20;53.60;;;;;;;-3.06;92.39;98524.98;103085;1297;25292;-79
2022/12/21 05:04:24;;;;;;;115.50;52.20;;;;;;;-3.08;92.68;98513.48;102909;1303;139208;-80
2022/12/21 05:06:50;;;;;;;125.60;54.10;;;;;;;-3.08;92.73;98516.88;102895;1313;22740;-81
2022/12/21 05:09:17;;;;;;;122.60;53.60;;;;;;;-3.08;93.19;98521.48;102944;1292;24301;-80
2022/12/21 05:11:43;;;;;;;124.20;53.90;;;;;;;-3.08;93.19;98527.30;102986;1303;139077;-80
2022/12/21 05:14:09;;;;;;;120.80;55.60;;;;;;;-3.08;93.10;98532.66;103154;1294;22475;-80
2022/12/21 05:16:41;;;;;;;133.70;57.90;;;;;;;-3.08;93.32;98526.61;102995;1304;139880;-80
2022/12/21 05:19:07;;;;;;;123.60;55.80;;;;;;;-3.07;93.29;98518.70;103033;1309;22851;-80
2022/12/21 05:21:33;;;;;;;119.10;52.90;;;;;;;-3.07;93.35;98516.36;102961;1300;22521;-80
2022/12/21 05:23:59;;;;;;;129.50;56.00;;;;;;;-3.08;93.04;98514.91;102953;1288;138741;-80
2022/12/21 05:26:25;;;;;;;137.30;56.80;;;;;;;-3.09;92.98;98515.55;103129;1297;22701;-80
2022/12/21 05:28:52;;;;;;;130.70;57.00;;;;;;;-3.10;93.17;98519.39;102842;1297;138753;-80
2022/12/21 05:31:19;;;;;;;126.60;55.80;;;;;;;-3.10;93.14;98513.20;102994;1310;22477;-80
2022/12/21 05:33:45;;;;;;;122.50;52.70;;;;;;;-3.12;92.96;98519.25;102888;1304;22508;-79
2022/12/21 05:36:13;;;;;;;131.20;53.00;;;;;;;-3.13;93.05;98517.96;102733;1291;138271;-80
2022/12/21 05:38:40;;;;;;;116.50;51.80;;;;;;;-3.13;93.36;98513.85;102933;1297;25442;-80
2022/12/21 05:41:06;;;;;;;121.50;52.90;;;;;;;-3.15;93.10;98512.61;102756;1313;138896;-80
2022/12/21 05:43:33;;;;;;;133.70;52.40;;;;;;;-3.16;93.07;98519.33;102877;1310;22507;-80
2022/12/21 05:46:01;;;;;;;133.50;54.60;;;;;;;-3.17;93.01;98526.31;102970;1313;22491;-80
2022/12/21 05:48:27;;;;;;;126.40;54.00;;;;;;;-3.17;93.22;98530.80;103091;1303;138250;-80
2022/12/21 05:50:53;;;;;;;128.80;52.20;;;;;;;-3.17;93.24;98530.41;102962;1304;24379;-79
2022/12/21 05:53:20;;;;;;;122.20;54.40;;;;;;;-3.16;93.53;98527.69;102919;1292;138254;-80
2022/12/21 05:55:46;;;;;;;127.90;54.10;;;;;;;-3.15;93.66;98525.02;102966;1291;23366;-79
2022/12/21 05:58:13;;;;;;;119.90;52.70;;;;;;;-3.13;93.84;98522.54;102795;1287;138619;-77
2022/12/21 06:00:40;;;;;;;123.90;52.10;;;;;;;-3.12;93.90;98525.41;103116;1297;22581;-80
2022/12/21 06:03:07;;;;;;;125.70;51.30;;;;;;;-3.10;93.95;98524.56;102927;1290;22520;-79
2022/12/21 06:05:37;;;;;;;129.40;54.10;;;;;;;-3.08;94.02;98523.64;103325;1294;138266;-80
2022/12/21 06:08:04;;;;;;;120.90;50.50;;;;;;;-3.06;94.01;98528.39;102970;1304;24401;-80
2022/12/21 06:10:30;;;;;;;116.80;52.70;;;;;;;-3.05;94.01;98520.50;102932;1297;139858;-79
2022/12/21 06:12:56;;;;;;;120.80;49.30;;;;;;;-3.03;94.02;98520.45;103166;1288;24235;-79
2022/12/21 06:15:22;;;;;;;119.90;51.60;;;;;;;-3.00;94.01;98521.70;103001;1297;22510;-79
2022/12/21 06:17:49;;;;;;;119.40;51.00;;;;;;;-2.98;94.10;98520.95;102965;1297;140325;-79
2022/12/21 06:20:15;;;;;;;113.70;49.60;;;;;;;-2.96;93.85;98520.65;103047;1297;25193;-79
2022/12/21 06:22:41;;;;;;;112.30;48.80;;;;;;;-2.96;93.65;98515.98;103026;1311;138727;-79
2022/12/21 06:25:07;;;;;;;123.30;54.30;;;;;;;-2.95;93.77;98514.64;103371;1294;23535;-79
2022/12/21 06:27:34;;;;;;;122.50;53.10;;;;;;;-2.92;93.71;98510.83;103606;1295;22499;-79
2022/12/21 06:30:00;;;;;;;117.40;51.90;;;;;;;-2.91;94.11;98507.10;103012;1301;138291;-80
2022/12/21 06:32:26;;;;;;;120.70;51.00;;;;;;;-2.87;93.81;98506.76;103199;1300;25300;-80
2022/12/21 06:34:52;;;;;;;113.50;49.80;;;;;;;-2.85;93.81;98510.75;103229;1313;138928;-79
2022/12/21 06:37:18;;;;;;;121.00;52.20;;;;;;;-2.83;93.59;98514.36;103926;1291;25253;-80
2022/12/21 06:39:45;;;;;;;120.40;48.60;;;;;;;-2.81;93.79;98515.02;103187;1298;25322;-80
2022/12/21 06:42:11;;;;;;;113.70;48.50;;;;;;;-2.79;93.80;98517.45;102977;1313;139372;-80
2022/12/21 06:44:37;;;;;;;117.50;47.00;;;;;;;-2.78;93.71;98517.50;103206;1299;22564;-80
2022/12/21 06:47:04;;;;;;;104.40;46.80;;;;;;;-2.75;93.55;98513.70;102811;1311;138962;-80
2022/12/21 06:49:31;;;;;;;112.10;50.90;;;;;;;-2.73;93.62;98510.49;103123;1303;22481;-80
2022/12/21 06:51:57;;;;;;;123.80;52.40;;;;;;;-2.71;93.45;98507.08;103086;1297;22501;-80
2022/12/21 06:54:23;;;;;;;109.60;48.20;;;;;;;-2.69;93.50;98501.69;103214;1301;138706;-79
2022/12/21 06:56:50;;;;;;;114.10;49.50;;;;;;;-2.67;93.43;98498.76;103235;1291;25210;-79
2022/12/21 06:59:16;;;;;;;113.40;46.90;;;;;;;-2.63;93.45;98497.52;103116;1308;139937;-79
2022/12/21 07:01:42;;;;;;;108.10;45.50;;;;;;;-2.60;93.33;98489.25;103266;1313;22488;-80
2022/12/21 07:04:08;;;;;;;100.30;44.40;;;;;;;-2.57;93.40;98488.84;103276;1312;24290;-79
2022/12/21 07:06:34;;;;;;;99.00;46.50;;;;;;;-2.52;93.39;98500.76;103908;1304;138121;-80
2022/12/21 07:09:01;;;;;;;101.50;45.80;;;;;;;-2.47;93.48;98506.01;104105;1295;24200;-79
2022/12/21 07:11:29;;;;;;;99.70;42.80;;;;;;;-2.41;93.53;98504.16;103800;1299;138729;-80
2022/12/21 07:13:55;;;;;;;95.60;41.40;;;;;;;-2.37;93.12;98499.39;104006;1291;23516;-79
2022/12/21 07:16:22;;;;;;;97.20;44.90;;;;;;;-2.32;93.02;98498.36;103829;1292;142178;-80
2022/12/21 07:18:49;;;;;;;100.90;44.10;;;;;;;-2.27;92.94;98493.91;104185;1291;22776;-79
2022/12/21 07:21:18;;;;;;;94.20;43.40;;;;;;;-2.21;93.00;98493.63;104218;1289;22509;-80
2022/12/21 07:23:46;;;;;;;104.50;44.70;;;;;;;-2.13;93.07;98503.78;103023;1308;139242;-79
2022/12/21 07:26:15;;;;;;;101.80;44.70;;;;;;;-2.03;92.96;98497.64;103048;1292;22495;-80
2022/12/21 07:28:43;;;;;;;98.00;44.50;;;;;;;-1.95;93.06;98492.45;103060;1313;139559;-80
2022/12/21 07:31:13;;;;;;;108.40;46.10;;;;;;;-1.83;93.13;98493.04;103169;1297;23475;-79
2022/12/21 07:33:40;;;;;;;100.90;44.30;;;;;;;-1.72;92.77;98479.52;103095;1297;25258;-80
2022/12/21 07:36:08;;;;;;;98.10;44.10;;;;;;;-1.62;92.57;98478.08;103176;1292;139681;-80
2022/12/21 07:38:36;;;;;;;99.30;45.10;;;;;;;-1.49;92.76;98479.90;103204;1313;22738;-79
2022/12/21 07:41:06;;;;;;;96.20;43.80;;;;;;;-1.36;92.91;98470.59;102985;1290;138868;-79
2022/12/21 07:43:33;;;;;;;101.90;44.50;;;;;;;-1.23;92.42;98463.44;103426;1308;24888;-80
2022/12/21 07:46:14;;;;;;;90.20;42.20;;;;;;;-1.06;92.54;98461.67;102782;1294;25451;-80
2022/12/21 07:48:40;;;;;;;100.60;42.90;;;;;;;-0.90;92.58;98458.66;103485;1313;139462;-80
2022/12/21 07:51:07;;;;;;;89.30;41.80;;;;;;;-0.76;91.71;98453.15;103849;1297;24810;-80
2022/12/21 07:53:33;;;;;;;91.30;40.40;;;;;;;-0.66;91.09;98452.71;103352;1306;139560;-80
2022/12/21 07:56:18;;;;;;;91.30;41.00;;;;;;;-0.54;91.23;98457.84;102957;1297;25481;-80
2022/12/21 07:58:45;;;;;;;82.60;39.50;;;;;;;-0.42;91.31;98456.46;103038;1292;138767;-80
2022/12/21 08:01:14;;;;;;;94.70;43.50;;;;;;;-0.33;91.00;98454.16;102959;1303;23838;-80
2022/12/21 08:03:42;;;;;;;90.80;43.30;;;;;;;-0.27;90.50;98445.98;103291;1299;22556;-80
2022/12/21 08:06:08;;;;;;;93.20;41.80;;;;;;;-0.19;90.23;98445.96;102943;1304;138174;-80
2022/12/21 08:08:36;;;;;;;87.40;40.80;;;;;;;-0.10;90.43;98445.34;103939;1313;22164;-80
2022/12/21 08:11:03;;;;;;;86.90;41.10;;;;;;;-0.02;90.15;98446.11;104351;1297;138173;-80
2022/12/21 08:13:30;;;;;;;81.60;39.70;;;;;;;0.06;89.78;98437.40;103489;1291;22478;-79
2022/12/21 08:16:05;;;;;;;83.20;38.70;;;;;;;0.13;89.72;98436.20;103636;1294;23337;-80
2022/12/21 08:18:32;;;;;;;82.90;39.50;;;;;;;0.22;89.41;98435.70;103303;1298;139131;-80
2022/12/21 08:20:58;;;;;;;83.10;38.70;;;;;;;0.30;89.28;98431.52;103876;1292;22492;-79
2022/12/21 08:23:25;;;;;;;82.20;38.20;;;;;;;0.40;89.19;98429.50;103012;1292;137993;-79
2022/12/21 08:25:51;;;;;;;79.40;38.30;;;;;;;0.49;88.97;98432.62;103279;1313;24431;-79
2022/12/21 08:28:18;;;;;;;85.80;39.60;;;;;;;0.55;88.35;98433.13;102894;1300;138297;-78
2022/12/21 08:30:44;;;;;;;88.70;42.50;;;;;;;0.58;88.06;98428.60;103085;1313;22489;-79
2022/12/21 08:33:11;;;;;;;93.40;43.60;;;;;;;0.61;87.84;98433.54;102913;1296;22549;-79
2022/12/21 08:35:37;;;;;;;85.30;41.60;;;;;;;0.63;87.79;98429.33;103160;1307;137995;-79
2022/12/21 08:38:03;;;;;;;96.70;42.50;;;;;;;0.68;87.86;98426.03;102906;1313;22518;-79
2022/12/21 08:40:31;;;;;;;93.90;44.20;;;;;;;0.74;87.53;98434.95;102868;1291;138351;-79
2022/12/21 08:42:57;;;;;;;95.90;43.50;;;;;;;0.78;87.25;98439.01;103004;1301;24248;-80
2022/12/21 08:45:23;;;;;;;95.30;45.90;;;;;;;0.80;87.13;98427.89;103015;1298;24251;-79
2022/12/21 08:47:49;;;;;;;89.20;42.00;;;;;;;0.81;87.07;98413.05;103038;1289;138512;-79
2022/12/21 08:50:15;;;;;;;88.80;44.00;;;;;;;0.86;87.02;98416.88;103013;1307;22484;-80
2022/12/21 08:52:42;;;;;;;89.10;41.40;;;;;;;0.90;86.80;98423.43;103310;1313;139805;-79
2022/12/21 08:55:08;;;;;;;91.80;43.90;;;;;;;0.94;86.46;98417.43;103454;1298;22486;-79
2022/12/21 08:57:34;;;;;;;87.10;43.70;;;;;;;0.97;86.58;98419.05;103003;1292;68048;-80
2022/12/21 09:00:00;;;;;;;92.00;41.00;;;;;;;1.00;86.21;98417.63;103151;1298;138960;-80
2022/12/21 09:02:28;;;;;;;88.30;43.00;;;;;;;1.01;86.14;98412.59;104796;1305;22947;-80
2022/12/21 09:04:54;;;;;;;89.20;42.50;;;;;;;1.07;86.17;98414.23;103325;1288;138825;-80
2022/12/21 09:07:20;;;;;;;90.60;44.30;;;;;;;1.14;86.22;98405.50;102950;1304;22604;-80
2022/12/21 09:09:47;;;;;;;90.20;42.80;;;;;;;1.21;86.13;98405.60;103044;1287;25460;-80
2022/12/21 09:12:13;;;;;;;85.90;42.90;;;;;;;1.27;86.02;98394.95;102858;1300;138148;-80
2022/12/21 09:14:39;;;;;;;83.40;42.00;;;;;;;1.32;85.64;98403.48;102922;1291;26493;-80
2022/12/21 09:17:05;;;;;;;83.10;39.80;;;;;;;1.32;85.27;98411.02;102834;1298;138202;-80
2022/12/21 09:19:31;;;;;;;86.40;44.30;;;;;;;1.30;84.96;98412.02;103016;1313;22479;-80
2022/12/21 09:21:58;;;;;;;82.70;40.20;;;;;;;1.27;85.12;98401.98;103475;1298;22917;-81
2022/12/21 09:24:24;;;;;;;68.40;36.40;;;;;;;1.24;85.10;98392.91;103617;1290;137957;-80
2022/12/21 09:26:50;;;;;;;73.10;36.10;;;;;;;1.21;84.92;98385.52;103123;1313;24276;-81
2022/12/21 09:29:17;;;;;;;71.10;33.40;;;;;;;1.20;85.13;98390.43;102883;1290;138078;-79
2022/12/21 09:31:43;;;;;;;69.40;35.90;;;;;;;1.20;85.14;98384.94;102819;1313;22537;-79
2022/12/21 09:34:10;;;;;;;67.40;32.40;;;;;;;1.22;85.48;98382.04;103326;1290;22983;-79
2022/12/21 09:36:37;;;;;;;69.20;33.80;;;;;;;1.25;85.24;98386.52;103023;1289;138073;-79
2022/12/21 09:39:03;;;;;;;68.70;33.40;;;;;;;1.28;85.34;98391.98;102995;1307;22475;-79
2022/12/21 09:41:51;;;;;;;67.90;32.50;;;;;;;1.33;85.26;98397.45;103027;1293;139062;-79
2022/12/21 09:44:39;;;;;;;61.50;30.90;;;;;;;1.39;85.32;98394.93;102627;1306;25345;-78
2022/12/21 09:47:11;;;;;;;65.50;31.40;;;;;;;1.41;85.03;98399.20;102807;1301;138795;-79
2022/12/21 09:49:44;;;;;;;61.30;29.20;;;;;;;1.41;85.08;98396.85;103276;1291;22511;-80
2022/12/21 09:52:35;;;;;;;72.00;32.70;;;;;;;1.41;84.83;98395.78;103667;1298;22508;-79
2022/12/21 09:55:08;;;;;;;68.10;28.90;;;;;;;1.42;85.11;98399.58;103212;1300;25284;-80
2022/12/21 09:57:35;;;;;;;61.90;28.80;;;;;;;1.44;85.02;98395.27;102918;1313;22593;-80
2022/12/21 10:00:12;;;;;;;66.60;30.80;;;;;;;1.46;85.00;98398.84;102950;1291;139737;-79
2022/12/21 10:03:04;;;;;;;62.40;30.50;;;;;;;1.47;85.17;98396.84;103121;1291;22607;-76
2022/12/21 10:05:31;;;;;;;63.40;30.90;;;;;;;1.54;86.10;98394.40;102853;1297;138001;-78
2022/12/21 10:08:15;;;;;;;61.90;29.20;;;;;;;1.57;85.23;98391.17;103215;1297;25220;-78
2022/12/21 10:11:09;;;;;;;66.30;31.10;;;;;;;1.59;85.23;98380.00;103356;1287;138643;-78
2022/12/21 10:13:58;;;;;;;51.40;26.30;;;;;;;1.66;85.38;98385.91;102843;1292;22495;-78
2022/12/21 10:16:44;;;;;;;;;;;;;;;1.75;85.17;98375.30;104206;1290;23107;-79
2022/12/21 10:19:13;;;;;;;55.30;25.60;;;;;;;1.84;85.05;98373.05;103338;1298;22348;-78
2022/12/21 10:21:42;;;;;;;55.80;27.00;;;;;;;1.92;84.97;98377.21;103001;1292;22550;-78
2022/12/21 10:24:34;;;;;;;60.40;29.40;;;;;;;2.00;84.77;98376.21;104149;1309;138337;-77
2022/12/21 10:27:09;;;;;;;66.40;33.90;;;;;;;2.16;86.06;98372.02;102824;1288;25485;-78
2022/12/21 10:29:39;;;;;;;65.70;34.10;;;;;;;2.30;85.30;98376.20;102340;1303;138218;-78
2022/12/21 10:32:12;;;;;;;71.90;34.40;;;;;;;2.38;84.45;98379.73;103489;1294;22350;-78
2022/12/21 10:34:46;;;;;;;65.10;30.70;;;;;;;2.41;83.94;98372.65;102731;1294;139781;-77
2022/12/21 10:37:17;;;;;;;54.00;25.00;;;;;;;2.47;83.81;98368.27;102394;1291;23331;-77
2022/12/21 10:39:45;;;;;;;49.90;23.40;;;;;;;2.51;83.47;98363.30;103233;1295;22507;-77
2022/12/21 10:42:34;;;;;;;49.20;23.90;;;;;;;2.54;83.28;98354.58;103172;1301;137915;-77
2022/12/21 10:45:01;;;;;;;43.80;23.60;;;;;;;2.57;83.18;98346.92;103046;1294;22536;-77
2022/12/21 10:47:27;;;;;;;46.60;24.90;;;;;;;2.63;83.88;98347.04;103467;1287;137943;-74
2022/12/21 10:50:06;;;;;;;49.70;24.60;;;;;;;2.73;84.05;98344.75;102626;1304;23232;-75
2022/12/21 10:52:39;;;;;;;50.50;24.20;;;;;;;2.84;83.76;98341.50;103077;1310;138645;-75
2022/12/21 10:55:17;;;;;;;50.40;26.10;;;;;;;2.95;83.61;98338.85;102771;1300;22493;-76
2022/12/21 10:57:50;;;;;;;57.60;27.30;;;;;;;3.07;83.79;98342.20;103140;1292;22484;-74
2022/12/21 11:00:56;;;;;;;53.60;27.00;;;;;;;3.19;83.26;98345.45;103311;1290;138031;-78
2022/12/21 11:03:38;;;;;;;45.80;23.60;;;;;;;3.21;81.54;98345.00;103156;1289;22493;-79
2022/12/21 11:06:17;;;;;;;51.30;24.80;;;;;;;3.14;81.39;98337.15;103677;1288;138088;-79
2022/12/21 11:08:45;;;;;;;45.00;21.90;;;;;;;3.05;81.15;98336.86;103488;1294;24712;-78
2022/12/21 11:11:37;;;;;;;48.90;22.90;;;;;;;2.95;81.36;98341.98;103020;1291;138516;-78
2022/12/21 11:14:16;;;;;;;47.00;23.40;;;;;;;2.83;81.69;98343.74;103137;1282;22615;-79
2022/12/21 11:16:44;;;;;;;;;;;;;;;2.77;81.91;98347.77;102943;1313;138657;-78
2022/12/21 11:19:17;;;;;;;53.90;28.00;;;;;;;2.73;82.11;98339.58;103276;1296;22513;-78
2022/12/21 11:21:48;;;;;;;63.10;30.30;;;;;;;2.72;82.50;98337.42;103180;1287;23000;-79
2022/12/21 11:24:21;;;;;;;56.70;29.70;;;;;;;2.73;82.65;98336.11;102938;1307;140052;-78
2022/12/21 11:26:55;;;;;;;63.00;31.70;;;;;;;2.74;82.18;98331.60;103245;1289;23300;-78
2022/12/21 11:29:37;;;;;;;77.10;39.10;;;;;;;2.74;82.46;98330.81;104223;1313;139494;-79
2022/12/21 11:32:11;;;;;;;78.30;39.20;;;;;;;2.77;82.52;98322.23;103005;1288;23445;-79
2022/12/21 11:34:37;;;;;;;78.00;41.20;;;;;;;2.82;82.55;98319.54;103087;1297;138020;-79